• Join FlightAware (Why Join?)
  • Login
  • US Flag 
11:41AM EST


 

Airport Tracker/Info


-or-


 

Live Flight TrackerFlight Track Log ✈ UPS952 ✈ 08-Jun-2014 ✈ KSLC - KOAK

Flight Track Log - Related Links

Times and Time Zones

All times are in EDT time to prevent confusion due to time zone crossing. See the UPS952 flight status page for this flight to view local times or setup timezone preferences in your user account.

Time Position Orientation Groundspeed Altitude Reporting Facility
EDT Latitude Longitude Course Direction KTS MPH feet Rate Location/Type
09:03PM 40.7941 -111.9754 355° North 167 192 4,200  Level FlightAware ADS-B (KBTF)
09:03PM 40.8104 -111.9769 349° North 168 193 5,200 2,460 Climbing FlightAware ADS-B (KBTF)
09:04PM 40.8189 -111.9829 325° Northwest 178 205 5,600 1,980 Climbing FlightAware ADS-B (KBTF)
09:04PM 40.8222 -111.9881 294° West 201 231 5,800 1,500 Climbing FlightAware ADS-B (KBTF)
09:04PM 40.8257 -112.0054 276° West 221 254 6,100 1,920 Climbing FlightAware ADS-B (KBTF)
09:04PM 40.8261 -112.0341 271° West 243 280 6,900 2,100 Climbing FlightAware ADS-B (KBTF)
09:05PM 40.8266 -112.0645 270° West 265 305 7,500 2,400 Climbing FlightAware ADS-B (KBTF)
09:05PM 40.8275 -112.0977 271° West 269 310 8,500 3,000 Climbing FlightAware ADS-B (KBTF)
09:05PM 40.8259 -112.1234 261° West 280 322 9,400 1,860 Climbing FlightAware ADS-B
09:06PM 40.8194 -112.1612 257° West 296 341 9,700 960 Climbing FlightAware ADS-B
09:06PM 40.8092 -112.2130 248° West 297 342 10,200 1,020 Climbing FlightAware ADS-B
09:06PM 40.8022 -112.2285 237° Southwest 296 341 10,400 960 Climbing FlightAware ADS-B (KBTF)
09:06PM 40.7892 -112.2451 217° Southwest 308 354 10,600 1,500 Climbing FlightAware ADS-B
09:07PM 40.7549 -112.2705 205° Southwest 319 367 11,400 1,920 Climbing FlightAware ADS-B (KBTF)
09:07PM 40.7509 -112.2726 202° Southwest 329 379 11,500 3,300 Climbing FlightAware ADS-B (KBTF)
09:07PM 40.7038 -112.2879 192° South 348 400 13,300 3,720 Climbing FlightAware ADS-B (KBTF)
09:08PM 40.6561 -112.2972 187° South 343 395 15,300 2,580 Climbing FlightAware ADS-B (KBTF)
09:08PM 40.5989 -112.3058 187° South 400 460 16,100 1,560 Climbing FlightAware ADS-B
09:09PM 40.5336 -112.3167 188° South 440 506 17,100 2,160 Climbing FlightAware ADS-B
09:10PM 40.4722 -112.3301 190° South 458 527 18,400 2,880 Climbing FlightAware ADS-B
09:10PM 40.4043 -112.3451 189° South 469 540 20,100 3,000 Climbing FlightAware ADS-B
09:10PM 40.3772 -112.3511 191° South 474 545 20,600 3,000 Climbing FlightAware ADS-B (KBTF)
09:11PM 40.3212 -112.3737 204° Southwest 476 548 22,100 3,060 Climbing FlightAware ADS-B
09:11PM 40.2970 -112.3914 212° Southwest 474 545 22,600 2,580 Climbing FlightAware ADS-B (KBTF)
09:11PM 40.2641 -112.4281 227° Southwest 464 534 23,500 2,340 Climbing FlightAware ADS-B (KBTF)
09:12PM 40.2381 -112.4755 241° Southwest 468 539 24,200 2,340 Climbing FlightAware ADS-B (KBTF)
09:12PM 40.2180 -112.5269 243° Southwest 471 542 25,100 2,580 Climbing FlightAware ADS-B
09:13PM 40.1854 -112.6105 243° Southwest 476 548 26,600 2,340 Climbing FlightAware ADS-B
09:13PM 40.1537 -112.6931 243° Southwest 485 558 27,600 2,580 Climbing FlightAware ADS-B
09:14PM 40.1185 -112.7838 244° Southwest 476 548 29,400 3,180 Climbing FlightAware ADS-B (KBTF)
09:14PM 40.1099 -112.8059 244° Southwest 474 545 29,900 3,000 Climbing FlightAware ADS-B (KBTF)
09:14PM 40.0979 -112.8363 244° Southwest 471 542 30,400 2,520 Climbing FlightAware ADS-B (KBTF)
09:14PM 40.0895 -112.8578 244° Southwest 471 542 30,800 2,700 Climbing FlightAware ADS-B (KBTF)
09:15PM 40.0585 -112.9368 244° Southwest 467 537 32,200 2,520 Climbing FlightAware ADS-B (KBTF)
09:15PM 40.0219 -113.0295 243° Southwest 463 533 33,700 2,280 Climbing FlightAware ADS-B
09:16PM 39.9805 -113.1346 243° Southwest 458 527 35,300 1,800 Climbing FlightAware ADS-B (KBTF)
09:17PM 39.9477 -113.2172 243° Southwest 449 517 36,000 1,080 Climbing FlightAware ADS-B
09:17PM 39.9449 -113.2242 243° Southwest 448 516 36,000  Level FlightAware ADS-B
09:17PM 39.9087 -113.3154 244° Southwest 441 507 36,000  Level FlightAware ADS-B (KBTF)
09:18PM 39.8746 -113.4014 243° Southwest 447 514 36,000  Level FlightAware ADS-B
09:19PM 39.8279 -113.5184 243° Southwest 450 518 36,000  Level FlightAware ADS-B (KBTF)
09:19PM 39.7901 -113.6126 243° Southwest 452 520 36,000  Level FlightAware ADS-B (KBTF)
09:20PM 39.7597 -113.6881 242° Southwest 454 522 36,000  Level FlightAware ADS-B
09:20PM 39.7265 -113.7705 242° Southwest 454 522 36,000  Level FlightAware ADS-B (KBTF)
09:21PM 39.6757 -113.8962 242° Southwest 451 519 36,000  Level FlightAware ADS-B (KBTF)
09:22PM 39.6360 -113.9940 242° Southwest 452 520 36,000  Level FlightAware ADS-B (KBTF)
09:23PM 39.5941 -114.0968 242° Southwest 452 520 36,000  Level FlightAware ADS-B (KBTF)
09:23PM 39.5552 -114.1920 242° Southwest 452 520 36,000  Level FlightAware ADS-B (KBTF)
09:24PM 39.5154 -114.2889 242° Southwest 450 518 36,000  Level FlightAware ADS-B (KBTF)
09:25PM 39.4765 -114.3838 242° Southwest 448 516 36,000  Level FlightAware ADS-B (KBTF)
09:25PM 39.4388 -114.4752 242° Southwest 451 519 36,000  Level FlightAware ADS-B (KBTF)
09:26PM 39.3961 -114.5772 242° Southwest 453 521 36,000  Level Salt Lake Center
09:27PM 39.3394 -114.7136 242° Southwest 452 520 36,000  Level Salt Lake Center
09:28PM 39.2719 -114.8747 242° Southwest 455 524 36,000  Level Salt Lake Center
09:29PM 39.2153 -115.0108 242° Southwest 454 522 36,000  Level Salt Lake Center
09:30PM 39.1506 -115.1644 242° Southwest 448 516 36,000  Level Salt Lake Center
09:31PM 39.0928 -115.3017 242° Southwest 443 510 36,000  Level Salt Lake Center
09:32PM 39.0378 -115.4303 241° Southwest 443 510 36,000  Level Salt Lake Center
09:33PM 38.9783 -115.5672 241° Southwest 441 507 36,000  Level Salt Lake Center
09:34PM 38.9103 -115.7289 242° Southwest 434 499 36,000  Level Salt Lake Center
09:35PM 38.8525 -115.8614 241° Southwest 428 493 36,000  Level Salt Lake Center
09:36PM 38.8061 -115.9983 247° West 424 488 36,000  Level Salt Lake Center
09:37PM 38.7575 -116.1314 245° Southwest 417 480 36,000  Level Salt Lake Center
09:38PM 38.7083 -116.2639 245° Southwest 414 476 36,000  Level Salt Lake Center
09:39PM 38.6592 -116.3986 245° Southwest 414 476 36,000  Level Oakland Center
09:40PM 38.6103 -116.5303 245° Southwest 413 475 36,000  Level Oakland Center
09:41PM 38.5614 -116.6619 245° Southwest 412 474 36,000  Level Oakland Center
09:42PM 38.5128 -116.7939 245° Southwest 412 474 36,000  Level Oakland Center
09:43PM 38.4836 -116.9319 255° West 408 470 36,000  Level Oakland Center
09:45PM 38.4572 -117.1000 259° West 407 468 36,000  Level Oakland Center
09:46PM 38.4364 -117.2403 259° West 407 468 36,000  Level Oakland Center
09:47PM 38.4153 -117.3800 259° West 407 468 36,000  Level Oakland Center
09:48PM 38.3942 -117.5192 259° West 406 467 36,000  Level Oakland Center
09:49PM 38.3725 -117.6592 259° West 406 467 36,000  Level Oakland Center
09:50PM 38.3506 -117.7992 259° West 405 466 36,000  Level Oakland Center
09:51PM 38.3286 -117.9400 259° West 406 467 36,000  Level Oakland Center
09:52PM 38.3028 -118.1036 259° West 406 467 36,000  Level Oakland Center
09:53PM 38.2822 -118.2314 258° West 407 468 36,000  Level Oakland Center
09:58PM 38.1490 -119.0462 258° West 408 470 36,000  Level FlightAware ADS-B (KAHC)
09:59PM 38.1329 -119.1412 258° West 407 468 36,000  Level FlightAware ADS-B (KAHC)
10:00PM 38.1189 -119.2248 258° West 407 468 36,000  Level FlightAware ADS-B (KAHC)
10:00PM 38.1064 -119.2990 258° West 407 468 36,000 -720 Level FlightAware ADS-B (KAHC)
10:02PM 38.0559 -119.5939 258° West 414 476 34,000 -1,260 Descending FlightAware ADS-B (KAHC)
10:05PM 37.9920 -119.9604 258° West 443 510 30,400 -1,680 Descending FlightAware ADS-B
10:05PM 37.9761 -120.0509 257° West 455 524 29,100 -1,440 Descending FlightAware ADS-B
10:06PM 37.9550 -120.1692 257° West 451 519 28,500 -840 Descending FlightAware ADS-B
10:07PM 37.9372 -120.2683 257° West 447 514 28,000 -420 Descending FlightAware ADS-B
10:07PM 37.9186 -120.3725 257° West 446 513 28,000  Level FlightAware ADS-B
10:08PM 37.9003 -120.4737 257° West 450 518 28,000 -1,140 Level FlightAware ADS-B
10:09PM 37.8823 -120.5727 257° West 449 517 26,500 -1,500 Descending FlightAware ADS-B
10:09PM 37.8657 -120.6779 262° West 441 507 26,000 -1,740 Descending FlightAware ADS-B
10:10PM 37.8591 -120.7604 265° West 432 497 24,500 -1,980 Descending FlightAware ADS-B
10:11PM 37.8517 -120.8828 266° West 431 496 23,400 -2,040 Descending FlightAware ADS-B
10:11PM 37.8451 -120.9852 263° West 429 494 21,500 -3,120 Descending FlightAware ADS-B
10:12PM 37.8273 -121.0810 252° West 435 501 19,300 -3,000 Descending FlightAware ADS-B
10:13PM 37.8066 -121.1520 250° West 428 493 18,000 -2,580 Descending FlightAware ADS-B
10:13PM 37.8004 -121.1739 250° West 425 489 17,600 -2,400 Descending FlightAware ADS-B
10:13PM 37.7831 -121.2350 250° West 422 486 16,600 -2,520 Descending FlightAware ADS-B
10:13PM 37.7732 -121.2687 250° West 418 481 15,900 -3,120 Descending FlightAware ADS-B
10:14PM 37.7612 -121.3100 250° West 411 473 14,900 -3,240 Descending FlightAware ADS-B
10:14PM 37.7479 -121.3557 249° West 398 458 13,800 -2,760 Descending FlightAware ADS-B
10:14PM 37.7411 -121.3780 249° West 385 443 13,500 -1,800 Descending FlightAware ADS-B
10:15PM 37.7233 -121.4390 250° West 349 402 12,600 -1,680 Descending FlightAware ADS-B
10:15PM 37.7070 -121.4940 250° West 315 362 11,800 -1,500 Descending FlightAware ADS-B
10:15PM 37.7026 -121.5084 249° West 308 354 11,600 -1,980 Descending FlightAware ADS-B
10:16PM 37.6918 -121.5450 250° West 298 343 10,800 -2,400 Descending FlightAware ADS-B
10:16PM 37.6830 -121.5752 250° West 297 342 10,000 -2,580 Descending FlightAware ADS-B
10:16PM 37.6747 -121.6030 250° West 297 342 9,300 -2,880 Descending FlightAware ADS-B
10:16PM 37.6738 -121.6059 249° West 295 339 9,100 -2,280 Descending FlightAware ADS-B
10:17PM 37.6672 -121.6280 249° West 292 336 8,700 -1,920 Descending FlightAware ADS-B
10:17PM 37.6633 -121.6403 249° West 295 339 8,400 -1,500 Descending FlightAware ADS-B
10:17PM 37.6594 -121.6530 249° West 294 338 8,300 -600 Descending FlightAware ADS-B
10:17PM 37.6537 -121.6716 249° West 288 331 8,200 -420 Descending FlightAware ADS-B
10:17PM 37.6522 -121.6770 249° West 287 330 8,200  Level FlightAware ADS-B
10:17PM 37.6448 -121.7010 249° West 285 328 8,200  Level FlightAware ADS-B
10:17PM 37.6434 -121.7050 249° West 285 328 8,200 -420 Level FlightAware ADS-B
10:18PM 37.6375 -121.7240 249° West 283 326 8,100 -900 Descending FlightAware ADS-B
10:18PM 37.6344 -121.7341 249° West 281 323 7,900 -1,920 Descending FlightAware ADS-B
10:18PM 37.6303 -121.7470 249° West 282 325 7,600 -2,400 Descending FlightAware ADS-B
10:18PM 37.6245 -121.7655 248° West 283 326 7,100 -2,400 Descending FlightAware ADS-B
10:18PM 37.6229 -121.7700 247° West 284 327 7,000 -2,340 Descending FlightAware ADS-B
10:18PM 37.6148 -121.7940 247° West 281 323 6,400 -2,160 Descending FlightAware ADS-B
10:18PM 37.6141 -121.7963 247° West 281 323 6,400 -720 Level FlightAware ADS-B
10:19PM 37.6067 -121.8180 247° West 267 307 6,200 -660 Descending FlightAware ADS-B
10:19PM 37.6046 -121.8243 248° West 261 300 6,200  Level FlightAware ADS-B
10:19PM 37.5989 -121.8410 247° West 247 284 6,200 -300 Level FlightAware ADS-B
10:19PM 37.5960 -121.8502 247° West 242 278 6,100 -780 Descending FlightAware ADS-B
10:19PM 37.5921 -121.8620 247° West 242 278 6,000 -900 Descending FlightAware ADS-B
10:19PM 37.5873 -121.8762 247° West 247 284 5,800 -1,200 Descending FlightAware ADS-B
10:20PM 37.5853 -121.8820 247° West 247 284 5,700 -1,020 Descending FlightAware ADS-B
10:20PM 37.5785 -121.9020 247° West 246 283 5,500 -720 Descending FlightAware ADS-B
10:20PM 37.5779 -121.9039 247° West 247 284 5,500 -1,140 Level FlightAware ADS-B
10:20PM 37.5716 -121.9220 247° West 246 283 5,200 -960 Descending FlightAware ADS-B
10:20PM 37.5692 -121.9300 249° West 243 280 5,200  Level FlightAware ADS-B
10:20PM 37.5679 -121.9360 255° West 240 276 5,200  Level FlightAware ADS-B
10:20PM 37.5675 -121.9410 263° West 238 274 5,200  Level FlightAware ADS-B
10:20PM 37.5674 -121.9450 270° West 237 273 5,200  Level FlightAware ADS-B
10:20PM 37.5681 -121.9520 278° West 236 272 5,200  Level FlightAware ADS-B
10:20PM 37.5691 -121.9570 283° West 237 273 5,200  Level FlightAware ADS-B
10:20PM 37.5692 -121.9578 284° West 237 273 5,200 -840 Level FlightAware ADS-B
10:21PM 37.5733 -121.9770 285° West 238 274 5,000 -960 Descending FlightAware ADS-B
10:21PM 37.5744 -121.9828 284° West 237 273 4,900 -1,200 Descending FlightAware ADS-B
10:21PM 37.5784 -122.0040 283° West 230 265 4,600 -1,020 Descending FlightAware ADS-B
10:21PM 37.5819 -122.0233 283° West 214 246 4,400 -780 Descending FlightAware ADS-B
10:21PM 37.5839 -122.0330 286° West 205 236 4,300 -540 Descending FlightAware ADS-B
10:21PM 37.5851 -122.0380 291° West 200 230 4,300  Level FlightAware ADS-B
10:22PM 37.5867 -122.0420 297° West 199 229 4,300 -1,020 Level FlightAware ADS-B
10:22PM 37.5871 -122.0425 303° West 195 224 4,200 -1,200 Descending FlightAware ADS-B
10:22PM 37.5893 -122.0470 304° West 194 223 4,200 -720 Level FlightAware ADS-B
10:22PM 37.5927 -122.0520 309° West 189 217 4,100 -1,380 Descending FlightAware ADS-B
10:22PM 37.5990 -122.0611 311° West 181 208 3,800 -1,440 Descending FlightAware ADS-B
10:22PM 37.5999 -122.0620 311° West 179 206 3,800 -1,440 Level FlightAware ADS-B
10:22PM 37.6078 -122.0740 309° West 169 194 3,400 -1,320 Descending FlightAware ADS-B
10:22PM 37.6083 -122.0754 310° West 168 193 3,400 -1,140 Level FlightAware ADS-B
10:22PM 37.6132 -122.0830 310° West 165 190 3,200 -1,440 Descending FlightAware ADS-B
10:23PM 37.6193 -122.0917 310° West 164 189 2,900 -1,620 Descending FlightAware ADS-B
10:23PM 37.6206 -122.0940 310° West 164 189 2,800 -900 Descending FlightAware ADS-B
10:23PM 37.6231 -122.0970 310° West 165 190 2,800 -720 Level FlightAware ADS-B
10:23PM 37.6290 -122.1062 310° West 166 191 2,600 -1,140 Descending FlightAware ADS-B
10:23PM 37.6308 -122.1090 310° West 166 191 2,500 -1,320 Descending FlightAware ADS-B
10:23PM 37.6385 -122.1200 310° West 165 190 2,200 -1,080 Descending FlightAware ADS-B
10:23PM 37.6393 -122.1215 310° West 165 190 2,200 -900 Level FlightAware ADS-B
10:23PM 37.6450 -122.1300 310° West 157 181 2,000 -960 Descending FlightAware ADS-B
10:24PM 37.6513 -122.1390 310° West 143 165 1,800 -840 Descending FlightAware ADS-B
10:24PM 37.6573 -122.1480 311° West 130 150 1,600 -720 Descending FlightAware ADS-B
10:24PM 37.6610 -122.1540 310° West 129 148 1,500 -480 Descending FlightAware ADS-B
10:24PM 37.6669 -122.1630 310° West 132 152 1,400 -600 Descending FlightAware ADS-B
10:25PM 37.6729 -122.1720 310° West 132 152 1,200 -720 Descending FlightAware ADS-B
10:25PM 37.6772 -122.1780 311° West 133 153 1,100 -780 Descending FlightAware ADS-B
10:25PM 37.6826 -122.1860 310° West 131 151 900 -780 Descending FlightAware ADS-B
10:25PM 37.6929 -122.2010 310° West 130 150 600 -720 Descending FlightAware ADS-B
10:26PM 37.7001 -122.2120 310° West 136 157 400 -780 Descending FlightAware ADS-B
10:26PM 37.7064 -122.2220 310° West 138 159 200 -780 Descending FlightAware ADS-B